sensor_id;sensor_type;location;lat;lon;timestamp;P1;durP1;ratioP1;P2;durP2;ratioP2
37905;SDS011;23739;51.448;6.674;2023-11-19T00:00:34;7.68;;;6.88;;
37905;SDS011;23739;51.448;6.674;2023-11-19T00:03:00;7.75;;;7.05;;
37905;SDS011;23739;51.448;6.674;2023-11-19T00:05:26;7.10;;;6.35;;
37905;SDS011;23739;51.448;6.674;2023-11-19T00:16:13;10.70;;;6.70;;
37905;SDS011;23739;51.448;6.674;2023-11-19T00:18:48;19.23;;;7.32;;
37905;SDS011;23739;51.448;6.674;2023-11-19T00:27:25;9.45;;;6.35;;
37905;SDS011;23739;51.448;6.674;2023-11-19T00:29:55;7.22;;;6.20;;
37905;SDS011;23739;51.448;6.674;2023-11-19T00:32:34;6.38;;;5.68;;
37905;SDS011;23739;51.448;6.674;2023-11-19T00:41:13;6.68;;;5.40;;
37905;SDS011;23739;51.448;6.674;2023-11-19T00:46:38;5.53;;;5.00;;
37905;SDS011;23739;51.448;6.674;2023-11-19T00:58:15;7.90;;;6.20;;
37905;SDS011;23739;51.448;6.674;2023-11-19T01:00:43;7.15;;;5.60;;
37905;SDS011;23739;51.448;6.674;2023-11-19T01:03:10;6.28;;;5.32;;
37905;SDS011;23739;51.448;6.674;2023-11-19T01:05:36;6.15;;;5.60;;
37905;SDS011;23739;51.448;6.674;2023-11-19T01:08:02;6.22;;;5.63;;
37905;SDS011;23739;51.448;6.674;2023-11-19T01:10:30;7.35;;;5.57;;
37905;SDS011;23739;51.448;6.674;2023-11-19T01:12:56;6.00;;;5.50;;
37905;SDS011;23739;51.448;6.674;2023-11-19T01:15:22;5.57;;;5.07;;
37905;SDS011;23739;51.448;6.674;2023-11-19T01:17:48;5.45;;;4.93;;
37905;SDS011;23739;51.448;6.674;2023-11-19T01:20:14;5.35;;;4.82;;
37905;SDS011;23739;51.448;6.674;2023-11-19T01:22:40;6.35;;;5.45;;
37905;SDS011;23739;51.448;6.674;2023-11-19T01:25:07;6.07;;;4.85;;
37905;SDS011;23739;51.448;6.674;2023-11-19T01:27:33;5.32;;;4.82;;
37905;SDS011;23739;51.448;6.674;2023-11-19T01:30:00;6.18;;;4.45;;
37905;SDS011;23739;51.448;6.674;2023-11-19T01:32:30;4.70;;;4.30;;
37905;SDS011;23739;51.448;6.674;2023-11-19T01:34:56;5.90;;;4.30;;
37905;SDS011;23739;51.448;6.674;2023-11-19T01:37:22;6.55;;;4.28;;
37905;SDS011;23739;51.448;6.674;2023-11-19T01:39:49;5.68;;;3.88;;
37905;SDS011;23739;51.448;6.674;2023-11-19T01:42:15;5.10;;;4.03;;
37905;SDS011;23739;51.448;6.674;2023-11-19T01:44:41;6.03;;;4.18;;
37905;SDS011;23739;51.448;6.674;2023-11-19T01:47:08;5.43;;;3.35;;
37905;SDS011;23739;51.448;6.674;2023-11-19T01:49:34;4.40;;;3.80;;
37905;SDS011;23739;51.448;6.674;2023-11-19T01:52:00;4.03;;;3.50;;
37905;SDS011;23739;51.448;6.674;2023-11-19T01:54:26;5.38;;;3.50;;
37905;SDS011;23739;51.448;6.674;2023-11-19T01:56:54;4.43;;;3.13;;
37905;SDS011;23739;51.448;6.674;2023-11-19T01:59:21;4.35;;;3.63;;
37905;SDS011;23739;51.448;6.674;2023-11-19T02:01:51;5.65;;;3.40;;
37905;SDS011;23739;51.448;6.674;2023-11-19T02:04:17;5.57;;;3.80;;
37905;SDS011;23739;51.448;6.674;2023-11-19T02:06:43;5.18;;;4.20;;
37905;SDS011;23739;51.448;6.674;2023-11-19T02:09:11;4.18;;;3.33;;
37905;SDS011;23739;51.448;6.674;2023-11-19T02:11:39;6.45;;;3.58;;
37905;SDS011;23739;51.448;6.674;2023-11-19T02:14:05;4.75;;;2.85;;
37905;SDS011;23739;51.448;6.674;2023-11-19T02:16:31;5.30;;;3.00;;
37905;SDS011;23739;51.448;6.674;2023-11-19T02:18:57;6.82;;;3.15;;
37905;SDS011;23739;51.448;6.674;2023-11-19T02:21:24;7.82;;;3.17;;
37905;SDS011;23739;51.448;6.674;2023-11-19T02:23:50;9.40;;;2.67;;
37905;SDS011;23739;51.448;6.674;2023-11-19T02:26:27;5.90;;;2.58;;
37905;SDS011;23739;51.448;6.674;2023-11-19T02:28:54;7.43;;;2.60;;
37905;SDS011;23739;51.448;6.674;2023-11-19T02:31:21;8.85;;;2.75;;
37905;SDS011;23739;51.448;6.674;2023-11-19T02:33:48;5.50;;;1.80;;
37905;SDS011;23739;51.448;6.674;2023-11-19T02:36:15;6.00;;;2.38;;
37905;SDS011;23739;51.448;6.674;2023-11-19T02:38:41;12.80;;;2.03;;
37905;SDS011;23739;51.448;6.674;2023-11-19T02:41:08;5.00;;;2.00;;
37905;SDS011;23739;51.448;6.674;2023-11-19T02:43:35;8.93;;;2.38;;
37905;SDS011;23739;51.448;6.674;2023-11-19T02:46:03;11.63;;;2.47;;
37905;SDS011;23739;51.448;6.674;2023-11-19T02:48:35;7.40;;;2.10;;
37905;SDS011;23739;51.448;6.674;2023-11-19T02:51:02;8.30;;;1.90;;
37905;SDS011;23739;51.448;6.674;2023-11-19T02:53:34;12.00;;;2.20;;
37905;SDS011;23739;51.448;6.674;2023-11-19T02:56:02;14.73;;;2.75;;
37905;SDS011;23739;51.448;6.674;2023-11-19T02:58:36;8.48;;;3.22;;
37905;SDS011;23739;51.448;6.674;2023-11-19T03:01:04;6.07;;;1.98;;
37905;SDS011;23739;51.448;6.674;2023-11-19T03:03:38;9.88;;;2.40;;
37905;SDS011;23739;51.448;6.674;2023-11-19T03:06:05;12.57;;;2.60;;
37905;SDS011;23739;51.448;6.674;2023-11-19T03:08:32;13.70;;;3.65;;
37905;SDS011;23739;51.448;6.674;2023-11-19T03:10:58;9.93;;;3.03;;
37905;SDS011;23739;51.448;6.674;2023-11-19T03:13:24;9.20;;;2.47;;
37905;SDS011;23739;51.448;6.674;2023-11-19T03:15:50;6.53;;;2.58;;
37905;SDS011;23739;51.448;6.674;2023-11-19T03:18:16;15.02;;;2.72;;
37905;SDS011;23739;51.448;6.674;2023-11-19T03:20:42;9.70;;;2.90;;
37905;SDS011;23739;51.448;6.674;2023-11-19T03:23:08;11.25;;;2.95;;
37905;SDS011;23739;51.448;6.674;2023-11-19T03:25:35;9.15;;;2.65;;
37905;SDS011;23739;51.448;6.674;2023-11-19T03:28:02;12.27;;;2.20;;
37905;SDS011;23739;51.448;6.674;2023-11-19T03:30:29;10.15;;;2.90;;
37905;SDS011;23739;51.448;6.674;2023-11-19T03:32:55;12.25;;;2.83;;
37905;SDS011;23739;51.448;6.674;2023-11-19T03:35:22;15.15;;;3.45;;
37905;SDS011;23739;51.448;6.674;2023-11-19T03:37:48;15.52;;;2.97;;
37905;SDS011;23739;51.448;6.674;2023-11-19T03:40:14;12.27;;;3.20;;
37905;SDS011;23739;51.448;6.674;2023-11-19T03:42:40;16.77;;;4.03;;
37905;SDS011;23739;51.448;6.674;2023-11-19T03:45:07;20.95;;;3.40;;
37905;SDS011;23739;51.448;6.674;2023-11-19T03:47:36;16.63;;;3.30;;
37905;SDS011;23739;51.448;6.674;2023-11-19T03:50:02;19.98;;;3.05;;
37905;SDS011;23739;51.448;6.674;2023-11-19T03:52:29;11.25;;;2.65;;
37905;SDS011;23739;51.448;6.674;2023-11-19T03:54:55;12.65;;;2.80;;
37905;SDS011;23739;51.448;6.674;2023-11-19T03:57:22;14.48;;;3.05;;
37905;SDS011;23739;51.448;6.674;2023-11-19T03:59:48;12.45;;;3.33;;
37905;SDS011;23739;51.448;6.674;2023-11-19T04:02:15;19.35;;;3.40;;
37905;SDS011;23739;51.448;6.674;2023-11-19T04:04:41;15.05;;;3.00;;
37905;SDS011;23739;51.448;6.674;2023-11-19T04:07:07;17.33;;;3.25;;
37905;SDS011;23739;51.448;6.674;2023-11-19T04:09:33;16.05;;;2.70;;
37905;SDS011;23739;51.448;6.674;2023-11-19T04:11:59;18.95;;;3.55;;
37905;SDS011;23739;51.448;6.674;2023-11-19T04:14:26;14.00;;;3.20;;
37905;SDS011;23739;51.448;6.674;2023-11-19T04:16:52;17.70;;;2.58;;
37905;SDS011;23739;51.448;6.674;2023-11-19T04:19:18;15.57;;;3.63;;
37905;SDS011;23739;51.448;6.674;2023-11-19T04:21:45;12.77;;;2.65;;
37905;SDS011;23739;51.448;6.674;2023-11-19T04:24:11;13.38;;;3.28;;
37905;SDS011;23739;51.448;6.674;2023-11-19T04:26:41;24.08;;;3.95;;
37905;SDS011;23739;51.448;6.674;2023-11-19T04:29:11;15.15;;;3.72;;
37905;SDS011;23739;51.448;6.674;2023-11-19T04:31:38;15.70;;;3.90;;
37905;SDS011;23739;51.448;6.674;2023-11-19T04:34:05;20.25;;;3.40;;
37905;SDS011;23739;51.448;6.674;2023-11-19T04:36:31;18.15;;;4.63;;
37905;SDS011;23739;51.448;6.674;2023-11-19T04:38:58;15.43;;;3.40;;
37905;SDS011;23739;51.448;6.674;2023-11-19T04:41:25;19.83;;;3.97;;
37905;SDS011;23739;51.448;6.674;2023-11-19T04:43:52;28.00;;;5.40;;
37905;SDS011;23739;51.448;6.674;2023-11-19T04:46:18;24.90;;;4.45;;
37905;SDS011;23739;51.448;6.674;2023-11-19T04:48:44;19.38;;;4.43;;
37905;SDS011;23739;51.448;6.674;2023-11-19T04:51:10;19.48;;;5.60;;
37905;SDS011;23739;51.448;6.674;2023-11-19T04:53:36;27.95;;;4.63;;
37905;SDS011;23739;51.448;6.674;2023-11-19T04:56:09;16.45;;;4.07;;
37905;SDS011;23739;51.448;6.674;2023-11-19T04:58:35;29.50;;;4.95;;
37905;SDS011;23739;51.448;6.674;2023-11-19T05:01:02;17.88;;;3.53;;
37905;SDS011;23739;51.448;6.674;2023-11-19T05:03:28;23.73;;;4.50;;
37905;SDS011;23739;51.448;6.674;2023-11-19T05:05:54;21.23;;;4.93;;
37905;SDS011;23739;51.448;6.674;2023-11-19T05:08:20;20.90;;;6.30;;
37905;SDS011;23739;51.448;6.674;2023-11-19T05:10:46;33.03;;;4.90;;
37905;SDS011;23739;51.448;6.674;2023-11-19T05:13:12;21.52;;;3.88;;
37905;SDS011;23739;51.448;6.674;2023-11-19T05:15:38;17.17;;;3.80;;
37905;SDS011;23739;51.448;6.674;2023-11-19T05:18:04;20.10;;;5.20;;
37905;SDS011;23739;51.448;6.674;2023-11-19T05:20:30;24.20;;;4.57;;
37905;SDS011;23739;51.448;6.674;2023-11-19T05:22:56;17.08;;;4.07;;
37905;SDS011;23739;51.448;6.674;2023-11-19T05:25:25;17.65;;;4.30;;
37905;SDS011;23739;51.448;6.674;2023-11-19T05:27:52;18.52;;;3.95;;
37905;SDS011;23739;51.448;6.674;2023-11-19T05:30:17;24.70;;;4.22;;
37905;SDS011;23739;51.448;6.674;2023-11-19T05:32:44;21.45;;;3.90;;
37905;SDS011;23739;51.448;6.674;2023-11-19T05:35:11;19.92;;;4.78;;
37905;SDS011;23739;51.448;6.674;2023-11-19T05:37:37;17.20;;;5.32;;
37905;SDS011;23739;51.448;6.674;2023-11-19T05:40:03;29.65;;;5.13;;
37905;SDS011;23739;51.448;6.674;2023-11-19T05:42:31;19.48;;;4.43;;
37905;SDS011;23739;51.448;6.674;2023-11-19T05:44:58;20.67;;;4.22;;
37905;SDS011;23739;51.448;6.674;2023-11-19T05:47:23;19.63;;;4.63;;
37905;SDS011;23739;51.448;6.674;2023-11-19T05:49:49;12.30;;;3.28;;
37905;SDS011;23739;51.448;6.674;2023-11-19T05:52:15;14.73;;;4.68;;
37905;SDS011;23739;51.448;6.674;2023-11-19T05:54:43;24.20;;;5.45;;
37905;SDS011;23739;51.448;6.674;2023-11-19T05:57:08;26.63;;;5.43;;
37905;SDS011;23739;51.448;6.674;2023-11-19T05:59:35;23.40;;;5.38;;
37905;SDS011;23739;51.448;6.674;2023-11-19T06:02:01;21.98;;;5.60;;
37905;SDS011;23739;51.448;6.674;2023-11-19T06:04:27;17.67;;;3.60;;
37905;SDS011;23739;51.448;6.674;2023-11-19T06:06:53;29.02;;;5.28;;
37905;SDS011;23739;51.448;6.674;2023-11-19T06:09:20;35.15;;;5.40;;
37905;SDS011;23739;51.448;6.674;2023-11-19T06:11:48;25.90;;;6.60;;
37905;SDS011;23739;51.448;6.674;2023-11-19T06:14:14;29.85;;;8.55;;
37905;SDS011;23739;51.448;6.674;2023-11-19T06:16:40;33.55;;;12.30;;
37905;SDS011;23739;51.448;6.674;2023-11-19T06:19:06;34.47;;;11.02;;
37905;SDS011;23739;51.448;6.674;2023-11-19T06:21:32;43.53;;;15.27;;
37905;SDS011;23739;51.448;6.674;2023-11-19T06:24:01;20.85;;;5.50;;
37905;SDS011;23739;51.448;6.674;2023-11-19T06:26:27;15.00;;;3.85;;
37905;SDS011;23739;51.448;6.674;2023-11-19T06:28:53;21.73;;;4.80;;
37905;SDS011;23739;51.448;6.674;2023-11-19T06:31:19;28.77;;;4.50;;
37905;SDS011;23739;51.448;6.674;2023-11-19T06:33:45;19.67;;;3.85;;
37905;SDS011;23739;51.448;6.674;2023-11-19T06:36:14;27.55;;;4.68;;
37905;SDS011;23739;51.448;6.674;2023-11-19T06:38:41;25.08;;;4.38;;
37905;SDS011;23739;51.448;6.674;2023-11-19T06:41:08;23.42;;;4.93;;
37905;SDS011;23739;51.448;6.674;2023-11-19T06:43:37;22.00;;;4.72;;
37905;SDS011;23739;51.448;6.674;2023-11-19T06:46:03;23.88;;;5.25;;
37905;SDS011;23739;51.448;6.674;2023-11-19T06:48:31;22.98;;;5.55;;
37905;SDS011;23739;51.448;6.674;2023-11-19T06:50:57;23.02;;;5.53;;
37905;SDS011;23739;51.448;6.674;2023-11-19T06:53:23;19.98;;;3.97;;
37905;SDS011;23739;51.448;6.674;2023-11-19T06:55:50;24.98;;;4.60;;
37905;SDS011;23739;51.448;6.674;2023-11-19T06:58:16;31.98;;;5.28;;
37905;SDS011;23739;51.448;6.674;2023-11-19T07:00:43;28.55;;;6.07;;
37905;SDS011;23739;51.448;6.674;2023-11-19T07:03:09;25.42;;;5.05;;
37905;SDS011;23739;51.448;6.674;2023-11-19T07:05:36;25.52;;;4.68;;
37905;SDS011;23739;51.448;6.674;2023-11-19T07:08:08;18.35;;;4.13;;
37905;SDS011;23739;51.448;6.674;2023-11-19T07:10:34;27.55;;;6.20;;
37905;SDS011;23739;51.448;6.674;2023-11-19T07:13:00;17.48;;;4.68;;
37905;SDS011;23739;51.448;6.674;2023-11-19T07:15:26;18.17;;;4.50;;
37905;SDS011;23739;51.448;6.674;2023-11-19T07:17:52;30.15;;;6.97;;
37905;SDS011;23739;51.448;6.674;2023-11-19T07:20:19;29.60;;;6.60;;
37905;SDS011;23739;51.448;6.674;2023-11-19T07:22:46;23.70;;;4.63;;
37905;SDS011;23739;51.448;6.674;2023-11-19T07:25:15;22.95;;;4.50;;
37905;SDS011;23739;51.448;6.674;2023-11-19T07:27:41;27.02;;;4.35;;
37905;SDS011;23739;51.448;6.674;2023-11-19T07:30:07;22.40;;;4.43;;
37905;SDS011;23739;51.448;6.674;2023-11-19T07:32:33;19.40;;;3.75;;
37905;SDS011;23739;51.448;6.674;2023-11-19T07:34:59;23.90;;;4.93;;
37905;SDS011;23739;51.448;6.674;2023-11-19T07:37:26;24.02;;;5.35;;
37905;SDS011;23739;51.448;6.674;2023-11-19T07:39:52;29.13;;;4.82;;
37905;SDS011;23739;51.448;6.674;2023-11-19T07:42:18;25.52;;;4.28;;
37905;SDS011;23739;51.448;6.674;2023-11-19T07:44:44;38.92;;;6.38;;
37905;SDS011;23739;51.448;6.674;2023-11-19T07:47:10;24.48;;;4.75;;
37905;SDS011;23739;51.448;6.674;2023-11-19T07:49:37;25.30;;;7.38;;
37905;SDS011;23739;51.448;6.674;2023-11-19T07:52:04;36.45;;;8.95;;
37905;SDS011;23739;51.448;6.674;2023-11-19T07:54:30;23.23;;;5.65;;
37905;SDS011;23739;51.448;6.674;2023-11-19T07:56:56;21.80;;;5.80;;
37905;SDS011;23739;51.448;6.674;2023-11-19T07:59:22;34.92;;;5.55;;
37905;SDS011;23739;51.448;6.674;2023-11-19T08:01:48;29.27;;;5.47;;
37905;SDS011;23739;51.448;6.674;2023-11-19T08:04:14;16.23;;;4.43;;
37905;SDS011;23739;51.448;6.674;2023-11-19T08:06:40;23.67;;;5.00;;
37905;SDS011;23739;51.448;6.674;2023-11-19T08:09:06;22.90;;;5.50;;
37905;SDS011;23739;51.448;6.674;2023-11-19T08:11:39;36.15;;;7.13;;
37905;SDS011;23739;51.448;6.674;2023-11-19T08:14:05;27.30;;;5.05;;
37905;SDS011;23739;51.448;6.674;2023-11-19T08:16:31;20.55;;;5.85;;
37905;SDS011;23739;51.448;6.674;2023-11-19T08:18:57;24.55;;;5.40;;
37905;SDS011;23739;51.448;6.674;2023-11-19T08:21:24;21.20;;;4.43;;
37905;SDS011;23739;51.448;6.674;2023-11-19T08:23:52;28.42;;;6.93;;
37905;SDS011;23739;51.448;6.674;2023-11-19T08:26:17;30.42;;;6.15;;
37905;SDS011;23739;51.448;6.674;2023-11-19T08:28:44;28.20;;;6.43;;
37905;SDS011;23739;51.448;6.674;2023-11-19T08:31:10;26.58;;;4.95;;
37905;SDS011;23739;51.448;6.674;2023-11-19T08:33:36;25.38;;;5.05;;
37905;SDS011;23739;51.448;6.674;2023-11-19T08:36:03;26.52;;;6.15;;
37905;SDS011;23739;51.448;6.674;2023-11-19T08:38:29;35.53;;;5.97;;
37905;SDS011;23739;51.448;6.674;2023-11-19T08:40:55;24.13;;;4.45;;
37905;SDS011;23739;51.448;6.674;2023-11-19T08:43:25;26.77;;;4.82;;
37905;SDS011;23739;51.448;6.674;2023-11-19T08:45:51;25.38;;;6.53;;
37905;SDS011;23739;51.448;6.674;2023-11-19T08:48:17;31.38;;;5.95;;
37905;SDS011;23739;51.448;6.674;2023-11-19T08:50:43;21.42;;;5.55;;
37905;SDS011;23739;51.448;6.674;2023-11-19T08:53:09;20.17;;;5.13;;
37905;SDS011;23739;51.448;6.674;2023-11-19T08:55:36;24.75;;;5.07;;
37905;SDS011;23739;51.448;6.674;2023-11-19T08:58:02;25.95;;;5.82;;
37905;SDS011;23739;51.448;6.674;2023-11-19T09:00:28;24.42;;;6.78;;
37905;SDS011;23739;51.448;6.674;2023-11-19T09:02:54;23.23;;;4.75;;
37905;SDS011;23739;51.448;6.674;2023-11-19T09:05:21;29.50;;;5.88;;
37905;SDS011;23739;51.448;6.674;2023-11-19T09:07:47;25.98;;;5.95;;
37905;SDS011;23739;51.448;6.674;2023-11-19T09:10:14;18.48;;;4.07;;
37905;SDS011;23739;51.448;6.674;2023-11-19T09:12:40;22.80;;;4.53;;
37905;SDS011;23739;51.448;6.674;2023-11-19T09:15:07;20.85;;;5.05;;
37905;SDS011;23739;51.448;6.674;2023-11-19T09:17:35;26.35;;;7.75;;
37905;SDS011;23739;51.448;6.674;2023-11-19T09:20:01;31.48;;;7.47;;
37905;SDS011;23739;51.448;6.674;2023-11-19T09:22:27;33.95;;;10.30;;
37905;SDS011;23739;51.448;6.674;2023-11-19T09:24:54;34.30;;;8.80;;
37905;SDS011;23739;51.448;6.674;2023-11-19T09:27:20;23.77;;;7.47;;
37905;SDS011;23739;51.448;6.674;2023-11-19T09:32:30;21.20;;;5.18;;
37905;SDS011;23739;51.448;6.674;2023-11-19T09:34:57;20.27;;;4.22;;
37905;SDS011;23739;51.448;6.674;2023-11-19T09:37:23;22.70;;;4.47;;
37905;SDS011;23739;51.448;6.674;2023-11-19T09:39:49;16.88;;;4.72;;
37905;SDS011;23739;51.448;6.674;2023-11-19T09:42:15;23.40;;;4.47;;
37905;SDS011;23739;51.448;6.674;2023-11-19T09:44:42;22.65;;;4.93;;
37905;SDS011;23739;51.448;6.674;2023-11-19T09:47:08;21.55;;;5.20;;
37905;SDS011;23739;51.448;6.674;2023-11-19T09:49:35;22.30;;;5.13;;
37905;SDS011;23739;51.448;6.674;2023-11-19T09:52:02;25.38;;;6.38;;
37905;SDS011;23739;51.448;6.674;2023-11-19T09:54:29;23.90;;;4.82;;
37905;SDS011;23739;51.448;6.674;2023-11-19T09:56:55;29.02;;;6.35;;
37905;SDS011;23739;51.448;6.674;2023-11-19T09:59:27;29.15;;;4.85;;
37905;SDS011;23739;51.448;6.674;2023-11-19T10:01:53;25.27;;;4.90;;
37905;SDS011;23739;51.448;6.674;2023-11-19T10:04:20;28.15;;;4.43;;
37905;SDS011;23739;51.448;6.674;2023-11-19T10:06:47;22.88;;;5.57;;
37905;SDS011;23739;51.448;6.674;2023-11-19T10:09:13;26.17;;;4.97;;
37905;SDS011;23739;51.448;6.674;2023-11-19T10:11:40;26.45;;;5.47;;
37905;SDS011;23739;51.448;6.674;2023-11-19T10:14:06;22.63;;;4.22;;
37905;SDS011;23739;51.448;6.674;2023-11-19T10:16:34;28.83;;;5.00;;
37905;SDS011;23739;51.448;6.674;2023-11-19T10:19:00;31.48;;;5.85;;
37905;SDS011;23739;51.448;6.674;2023-11-19T10:21:26;28.92;;;6.35;;
37905;SDS011;23739;51.448;6.674;2023-11-19T10:23:56;21.55;;;4.43;;
37905;SDS011;23739;51.448;6.674;2023-11-19T10:26:25;35.05;;;4.82;;
37905;SDS011;23739;51.448;6.674;2023-11-19T10:28:52;24.02;;;5.05;;
37905;SDS011;23739;51.448;6.674;2023-11-19T10:31:19;19.88;;;3.95;;
37905;SDS011;23739;51.448;6.674;2023-11-19T10:33:52;31.60;;;5.28;;
37905;SDS011;23739;51.448;6.674;2023-11-19T10:36:18;25.60;;;5.63;;
37905;SDS011;23739;51.448;6.674;2023-11-19T10:38:54;27.15;;;4.90;;
37905;SDS011;23739;51.448;6.674;2023-11-19T10:41:27;19.65;;;4.68;;
37905;SDS011;23739;51.448;6.674;2023-11-19T10:43:53;19.75;;;4.38;;
37905;SDS011;23739;51.448;6.674;2023-11-19T10:46:19;28.73;;;5.35;;
37905;SDS011;23739;51.448;6.674;2023-11-19T10:48:48;26.02;;;4.55;;
37905;SDS011;23739;51.448;6.674;2023-11-19T10:51:14;19.95;;;5.05;;
37905;SDS011;23739;51.448;6.674;2023-11-19T10:53:47;27.52;;;4.72;;
37905;SDS011;23739;51.448;6.674;2023-11-19T10:56:15;28.50;;;4.55;;
37905;SDS011;23739;51.448;6.674;2023-11-19T10:58:44;21.45;;;4.72;;
37905;SDS011;23739;51.448;6.674;2023-11-19T11:01:18;28.30;;;5.85;;
37905;SDS011;23739;51.448;6.674;2023-11-19T11:03:46;22.33;;;5.32;;
37905;SDS011;23739;51.448;6.674;2023-11-19T11:06:12;13.70;;;3.47;;
37905;SDS011;23739;51.448;6.674;2023-11-19T11:08:39;17.55;;;4.72;;
37905;SDS011;23739;51.448;6.674;2023-11-19T11:11:06;26.58;;;5.38;;
37905;SDS011;23739;51.448;6.674;2023-11-19T11:13:33;25.25;;;5.47;;
37905;SDS011;23739;51.448;6.674;2023-11-19T11:16:02;25.30;;;4.35;;
37905;SDS011;23739;51.448;6.674;2023-11-19T11:18:31;19.35;;;4.85;;
37905;SDS011;23739;51.448;6.674;2023-11-19T11:21:08;16.92;;;4.65;;
37905;SDS011;23739;51.448;6.674;2023-11-19T11:26:32;23.15;;;6.38;;
37905;SDS011;23739;51.448;6.674;2023-11-19T11:29:02;24.98;;;4.43;;
37905;SDS011;23739;51.448;6.674;2023-11-19T11:37:06;13.90;;;3.65;;
37905;SDS011;23739;51.448;6.674;2023-11-19T11:39:39;19.98;;;4.20;;
37905;SDS011;23739;51.448;6.674;2023-11-19T11:44:59;20.13;;;4.43;;
37905;SDS011;23739;51.448;6.674;2023-11-19T11:47:25;18.67;;;3.67;;
37905;SDS011;23739;51.448;6.674;2023-11-19T11:49:51;23.20;;;4.15;;
37905;SDS011;23739;51.448;6.674;2023-11-19T11:52:18;26.58;;;5.07;;
37905;SDS011;23739;51.448;6.674;2023-11-19T11:54:44;19.70;;;4.22;;
37905;SDS011;23739;51.448;6.674;2023-11-19T11:57:11;19.23;;;3.63;;
37905;SDS011;23739;51.448;6.674;2023-11-19T11:59:43;19.95;;;3.38;;
37905;SDS011;23739;51.448;6.674;2023-11-19T12:02:09;16.60;;;3.22;;
37905;SDS011;23739;51.448;6.674;2023-11-19T12:04:36;17.70;;;4.68;;
37905;SDS011;23739;51.448;6.674;2023-11-19T12:07:12;21.35;;;3.92;;
37905;SDS011;23739;51.448;6.674;2023-11-19T12:09:41;23.60;;;4.70;;
37905;SDS011;23739;51.448;6.674;2023-11-19T12:20:02;17.63;;;3.38;;
37905;SDS011;23739;51.448;6.674;2023-11-19T12:22:28;26.23;;;3.72;;
37905;SDS011;23739;51.448;6.674;2023-11-19T12:24:54;22.75;;;3.50;;
37905;SDS011;23739;51.448;6.674;2023-11-19T12:27:21;20.75;;;4.95;;
37905;SDS011;23739;51.448;6.674;2023-11-19T12:29:48;16.40;;;3.17;;
37905;SDS011;23739;51.448;6.674;2023-11-19T12:32:14;18.20;;;4.97;;
37905;SDS011;23739;51.448;6.674;2023-11-19T12:34:40;18.80;;;3.75;;
37905;SDS011;23739;51.448;6.674;2023-11-19T12:37:06;26.13;;;4.22;;
37905;SDS011;23739;51.448;6.674;2023-11-19T12:39:34;20.52;;;4.32;;
37905;SDS011;23739;51.448;6.674;2023-11-19T12:42:00;16.98;;;4.10;;
37905;SDS011;23739;51.448;6.674;2023-11-19T12:44:26;12.82;;;5.00;;
37905;SDS011;23739;51.448;6.674;2023-11-19T12:47:05;15.15;;;3.97;;
37905;SDS011;23739;51.448;6.674;2023-11-19T12:49:35;13.18;;;4.32;;
37905;SDS011;23739;51.448;6.674;2023-11-19T12:52:13;16.75;;;3.20;;
37905;SDS011;23739;51.448;6.674;2023-11-19T12:54:39;13.38;;;3.40;;
37905;SDS011;23739;51.448;6.674;2023-11-19T12:57:05;18.60;;;3.58;;
37905;SDS011;23739;51.448;6.674;2023-11-19T12:59:31;13.10;;;2.90;;
37905;SDS011;23739;51.448;6.674;2023-11-19T13:01:58;16.90;;;3.75;;
37905;SDS011;23739;51.448;6.674;2023-11-19T13:04:27;13.20;;;2.75;;
37905;SDS011;23739;51.448;6.674;2023-11-19T13:06:53;11.65;;;3.20;;
37905;SDS011;23739;51.448;6.674;2023-11-19T13:14:18;16.95;;;2.75;;
37905;SDS011;23739;51.448;6.674;2023-11-19T13:16:44;22.30;;;4.63;;
37905;SDS011;23739;51.448;6.674;2023-11-19T13:19:14;15.05;;;3.65;;
37905;SDS011;23739;51.448;6.674;2023-11-19T13:21:41;19.20;;;3.90;;
37905;SDS011;23739;51.448;6.674;2023-11-19T13:24:09;15.40;;;3.22;;
37905;SDS011;23739;51.448;6.674;2023-11-19T13:26:35;25.55;;;4.78;;
37905;SDS011;23739;51.448;6.674;2023-11-19T13:29:01;14.88;;;4.28;;
37905;SDS011;23739;51.448;6.674;2023-11-19T13:31:27;20.45;;;6.78;;
37905;SDS011;23739;51.448;6.674;2023-11-19T13:33:53;29.70;;;14.95;;
37905;SDS011;23739;51.448;6.674;2023-11-19T13:36:19;21.98;;;5.25;;
37905;SDS011;23739;51.448;6.674;2023-11-19T13:38:45;14.00;;;4.25;;
37905;SDS011;23739;51.448;6.674;2023-11-19T13:41:12;18.10;;;3.90;;
37905;SDS011;23739;51.448;6.674;2023-11-19T13:43:39;17.88;;;3.88;;
37905;SDS011;23739;51.448;6.674;2023-11-19T13:46:05;24.77;;;3.70;;
37905;SDS011;23739;51.448;6.674;2023-11-19T13:48:31;23.75;;;3.58;;
37905;SDS011;23739;51.448;6.674;2023-11-19T13:50:58;20.55;;;3.72;;
37905;SDS011;23739;51.448;6.674;2023-11-19T13:53:24;18.92;;;3.58;;
37905;SDS011;23739;51.448;6.674;2023-11-19T13:55:50;17.25;;;3.72;;
37905;SDS011;23739;51.448;6.674;2023-11-19T13:58:18;16.98;;;4.22;;
37905;SDS011;23739;51.448;6.674;2023-11-19T14:00:44;12.73;;;3.22;;
37905;SDS011;23739;51.448;6.674;2023-11-19T14:03:10;22.60;;;4.45;;
37905;SDS011;23739;51.448;6.674;2023-11-19T14:05:36;17.50;;;4.50;;
37905;SDS011;23739;51.448;6.674;2023-11-19T14:08:03;21.08;;;4.43;;
37905;SDS011;23739;51.448;6.674;2023-11-19T14:10:36;21.02;;;3.97;;
37905;SDS011;23739;51.448;6.674;2023-11-19T14:13:04;18.17;;;3.67;;
37905;SDS011;23739;51.448;6.674;2023-11-19T14:15:30;16.75;;;3.70;;
37905;SDS011;23739;51.448;6.674;2023-11-19T14:17:56;15.30;;;3.75;;
37905;SDS011;23739;51.448;6.674;2023-11-19T14:20:24;12.75;;;2.78;;
37905;SDS011;23739;51.448;6.674;2023-11-19T14:22:51;17.17;;;3.78;;
37905;SDS011;23739;51.448;6.674;2023-11-19T14:25:18;20.50;;;4.38;;
37905;SDS011;23739;51.448;6.674;2023-11-19T14:27:44;24.23;;;5.35;;
37905;SDS011;23739;51.448;6.674;2023-11-19T14:30:11;20.30;;;3.83;;
37905;SDS011;23739;51.448;6.674;2023-11-19T14:32:44;22.38;;;4.05;;
37905;SDS011;23739;51.448;6.674;2023-11-19T14:35:11;15.27;;;4.15;;
37905;SDS011;23739;51.448;6.674;2023-11-19T14:37:37;15.63;;;3.72;;
37905;SDS011;23739;51.448;6.674;2023-11-19T14:40:03;12.60;;;3.05;;
37905;SDS011;23739;51.448;6.674;2023-11-19T14:42:31;19.58;;;4.97;;
37905;SDS011;23739;51.448;6.674;2023-11-19T14:44:57;19.88;;;6.63;;
37905;SDS011;23739;51.448;6.674;2023-11-19T14:47:26;13.95;;;4.55;;
37905;SDS011;23739;51.448;6.674;2023-11-19T14:49:52;19.08;;;9.30;;
37905;SDS011;23739;51.448;6.674;2023-11-19T14:52:19;20.80;;;7.15;;
37905;SDS011;23739;51.448;6.674;2023-11-19T14:54:44;18.90;;;5.00;;
37905;SDS011;23739;51.448;6.674;2023-11-19T14:57:10;14.88;;;4.60;;
37905;SDS011;23739;51.448;6.674;2023-11-19T14:59:38;18.40;;;3.67;;
37905;SDS011;23739;51.448;6.674;2023-11-19T15:02:04;14.48;;;3.88;;
37905;SDS011;23739;51.448;6.674;2023-11-19T15:04:30;15.98;;;3.33;;
37905;SDS011;23739;51.448;6.674;2023-11-19T15:06:57;12.10;;;5.03;;
37905;SDS011;23739;51.448;6.674;2023-11-19T15:09:23;19.25;;;3.35;;
37905;SDS011;23739;51.448;6.674;2023-11-19T15:11:50;20.35;;;3.92;;
37905;SDS011;23739;51.448;6.674;2023-11-19T15:14:16;19.95;;;4.55;;
37905;SDS011;23739;51.448;6.674;2023-11-19T15:16:44;24.88;;;6.30;;
37905;SDS011;23739;51.448;6.674;2023-11-19T15:19:10;21.92;;;4.78;;
37905;SDS011;23739;51.448;6.674;2023-11-19T15:21:40;16.63;;;3.53;;
37905;SDS011;23739;51.448;6.674;2023-11-19T15:24:07;19.73;;;5.63;;
37905;SDS011;23739;51.448;6.674;2023-11-19T15:26:36;18.00;;;4.57;;
37905;SDS011;23739;51.448;6.674;2023-11-19T15:29:03;14.95;;;3.33;;
37905;SDS011;23739;51.448;6.674;2023-11-19T15:31:29;18.55;;;4.75;;
37905;SDS011;23739;51.448;6.674;2023-11-19T15:33:55;19.85;;;4.47;;